sensor_id;sensor_type;location;lat;lon;timestamp;temperature;humidity
20735;DHT22;10528;52.124;5.196;2023-07-30T00:02:22;18.50;99.90
20735;DHT22;10528;52.124;5.196;2023-07-30T00:04:49;18.50;99.90
20735;DHT22;10528;52.124;5.196;2023-07-30T00:07:17;18.60;99.90
20735;DHT22;10528;52.124;5.196;2023-07-30T00:09:44;18.80;99.90
20735;DHT22;10528;52.124;5.196;2023-07-30T00:12:11;18.40;99.90
20735;DHT22;10528;52.124;5.196;2023-07-30T00:14:38;18.40;99.90
20735;DHT22;10528;52.124;5.196;2023-07-30T00:17:05;18.60;99.90
20735;DHT22;10528;52.124;5.196;2023-07-30T00:19:32;18.70;99.90
20735;DHT22;10528;52.124;5.196;2023-07-30T00:21:59;18.80;99.90
20735;DHT22;10528;52.124;5.196;2023-07-30T00:24:26;18.50;99.90
20735;DHT22;10528;52.124;5.196;2023-07-30T00:26:53;18.40;99.90
20735;DHT22;10528;52.124;5.196;2023-07-30T00:29:20;18.40;99.90
20735;DHT22;10528;52.124;5.196;2023-07-30T00:31:47;18.20;99.90
20735;DHT22;10528;52.124;5.196;2023-07-30T00:34:14;18.60;99.90
20735;DHT22;10528;52.124;5.196;2023-07-30T00:36:41;18.40;99.90
20735;DHT22;10528;52.124;5.196;2023-07-30T00:39:08;18.40;99.90
20735;DHT22;10528;52.124;5.196;2023-07-30T00:41:37;18.40;99.90
20735;DHT22;10528;52.124;5.196;2023-07-30T00:44:05;18.30;99.90
20735;DHT22;10528;52.124;5.196;2023-07-30T00:46:32;18.40;99.90
20735;DHT22;10528;52.124;5.196;2023-07-30T00:49:00;18.10;99.90
20735;DHT22;10528;52.124;5.196;2023-07-30T00:51:27;18.20;99.90
20735;DHT22;10528;52.124;5.196;2023-07-30T00:53:57;18.00;99.90
20735;DHT22;10528;52.124;5.196;2023-07-30T00:56:25;18.00;99.90
20735;DHT22;10528;52.124;5.196;2023-07-30T00:58:53;18.00;99.90
20735;DHT22;10528;52.124;5.196;2023-07-30T01:01:21;18.00;99.90
20735;DHT22;10528;52.124;5.196;2023-07-30T01:03:50;17.90;99.90
20735;DHT22;10528;52.124;5.196;2023-07-30T01:06:17;17.80;99.90
20735;DHT22;10528;52.124;5.196;2023-07-30T01:08:47;18.00;99.90
20735;DHT22;10528;52.124;5.196;2023-07-30T01:11:15;18.10;99.90
20735;DHT22;10528;52.124;5.196;2023-07-30T01:13:44;18.30;99.90
20735;DHT22;10528;52.124;5.196;2023-07-30T01:16:14;18.10;99.90
20735;DHT22;10528;52.124;5.196;2023-07-30T01:18:41;18.00;99.90
20735;DHT22;10528;52.124;5.196;2023-07-30T01:21:08;18.00;99.90
20735;DHT22;10528;52.124;5.196;2023-07-30T01:23:35;17.80;99.90
20735;DHT22;10528;52.124;5.196;2023-07-30T01:26:10;17.80;99.90
20735;DHT22;10528;52.124;5.196;2023-07-30T01:28:47;17.90;99.90
20735;DHT22;10528;52.124;5.196;2023-07-30T01:31:16;18.00;99.90
20735;DHT22;10528;52.124;5.196;2023-07-30T01:33:48;18.50;99.90
20735;DHT22;10528;52.124;5.196;2023-07-30T01:36:19;18.30;99.90
20735;DHT22;10528;52.124;5.196;2023-07-30T01:38:48;18.20;99.90
20735;DHT22;10528;52.124;5.196;2023-07-30T01:41:16;18.40;99.90
20735;DHT22;10528;52.124;5.196;2023-07-30T01:43:43;18.30;99.90
20735;DHT22;10528;52.124;5.196;2023-07-30T01:46:10;18.30;99.90
20735;DHT22;10528;52.124;5.196;2023-07-30T01:48:37;18.20;99.90
20735;DHT22;10528;52.124;5.196;2023-07-30T01:51:04;18.20;99.90
20735;DHT22;10528;52.124;5.196;2023-07-30T01:53:31;18.20;99.90
20735;DHT22;10528;52.124;5.196;2023-07-30T01:55:58;18.20;99.90
20735;DHT22;10528;52.124;5.196;2023-07-30T01:58:25;18.10;99.90
20735;DHT22;10528;52.124;5.196;2023-07-30T02:00:52;18.30;99.90
20735;DHT22;10528;52.124;5.196;2023-07-30T02:03:19;18.50;99.90
20735;DHT22;10528;52.124;5.196;2023-07-30T02:05:46;18.40;99.90
20735;DHT22;10528;52.124;5.196;2023-07-30T02:08:13;18.30;99.90
20735;DHT22;10528;52.124;5.196;2023-07-30T02:10:42;18.30;99.90
20735;DHT22;10528;52.124;5.196;2023-07-30T02:13:09;18.40;99.90
20735;DHT22;10528;52.124;5.196;2023-07-30T02:15:40;18.10;99.90
20735;DHT22;10528;52.124;5.196;2023-07-30T02:18:08;18.00;99.90
20735;DHT22;10528;52.124;5.196;2023-07-30T02:20:37;18.30;99.90
20735;DHT22;10528;52.124;5.196;2023-07-30T02:23:04;18.20;99.90
20735;DHT22;10528;52.124;5.196;2023-07-30T02:25:31;18.30;99.90
20735;DHT22;10528;52.124;5.196;2023-07-30T02:27:59;18.30;99.90
20735;DHT22;10528;52.124;5.196;2023-07-30T02:30:28;18.20;99.90
20735;DHT22;10528;52.124;5.196;2023-07-30T02:32:54;18.30;99.90
20735;DHT22;10528;52.124;5.196;2023-07-30T02:35:21;18.40;99.90
20735;DHT22;10528;52.124;5.196;2023-07-30T02:37:48;18.30;99.90
20735;DHT22;10528;52.124;5.196;2023-07-30T02:40:15;18.00;99.90
20735;DHT22;10528;52.124;5.196;2023-07-30T02:42:42;18.10;99.90
20735;DHT22;10528;52.124;5.196;2023-07-30T02:45:09;17.80;99.90
20735;DHT22;10528;52.124;5.196;2023-07-30T02:47:36;17.80;99.90
20735;DHT22;10528;52.124;5.196;2023-07-30T02:50:04;18.30;99.90
20735;DHT22;10528;52.124;5.196;2023-07-30T02:52:32;18.00;99.90
20735;DHT22;10528;52.124;5.196;2023-07-30T02:54:59;18.00;99.90
20735;DHT22;10528;52.124;5.196;2023-07-30T02:57:26;18.10;99.90
20735;DHT22;10528;52.124;5.196;2023-07-30T02:59:53;18.10;99.90
20735;DHT22;10528;52.124;5.196;2023-07-30T03:02:20;17.80;99.90
20735;DHT22;10528;52.124;5.196;2023-07-30T03:04:47;17.80;99.90
20735;DHT22;10528;52.124;5.196;2023-07-30T03:07:14;17.60;99.90
20735;DHT22;10528;52.124;5.196;2023-07-30T03:09:41;17.50;99.90
20735;DHT22;10528;52.124;5.196;2023-07-30T03:12:08;17.60;99.90
20735;DHT22;10528;52.124;5.196;2023-07-30T03:14:35;17.60;99.90
20735;DHT22;10528;52.124;5.196;2023-07-30T03:17:03;17.60;99.90
20735;DHT22;10528;52.124;5.196;2023-07-30T03:19:31;17.60;99.90
20735;DHT22;10528;52.124;5.196;2023-07-30T03:21:58;17.60;99.90
20735;DHT22;10528;52.124;5.196;2023-07-30T03:24:25;17.60;99.90
20735;DHT22;10528;52.124;5.196;2023-07-30T03:26:52;17.50;99.90
20735;DHT22;10528;52.124;5.196;2023-07-30T03:29:19;17.50;99.90
20735;DHT22;10528;52.124;5.196;2023-07-30T03:31:46;17.40;99.90
20735;DHT22;10528;52.124;5.196;2023-07-30T03:34:13;17.30;99.90
20735;DHT22;10528;52.124;5.196;2023-07-30T03:36:40;17.30;99.90
20735;DHT22;10528;52.124;5.196;2023-07-30T03:39:06;17.30;99.90
20735;DHT22;10528;52.124;5.196;2023-07-30T03:41:33;17.30;99.90
20735;DHT22;10528;52.124;5.196;2023-07-30T03:44:02;17.40;99.90
20735;DHT22;10528;52.124;5.196;2023-07-30T03:46:29;17.40;99.90
20735;DHT22;10528;52.124;5.196;2023-07-30T03:48:56;17.40;99.90
20735;DHT22;10528;52.124;5.196;2023-07-30T03:51:23;17.30;99.90
20735;DHT22;10528;52.124;5.196;2023-07-30T03:53:50;17.30;99.90
20735;DHT22;10528;52.124;5.196;2023-07-30T03:56:17;17.30;99.90
20735;DHT22;10528;52.124;5.196;2023-07-30T03:58:44;17.30;99.90
20735;DHT22;10528;52.124;5.196;2023-07-30T04:01:10;17.30;99.90
20735;DHT22;10528;52.124;5.196;2023-07-30T04:03:38;17.20;99.90
20735;DHT22;10528;52.124;5.196;2023-07-30T04:06:05;17.20;99.90
20735;DHT22;10528;52.124;5.196;2023-07-30T04:08:32;17.30;99.90
20735;DHT22;10528;52.124;5.196;2023-07-30T04:11:00;17.30;99.90
20735;DHT22;10528;52.124;5.196;2023-07-30T04:13:27;17.20;99.90
20735;DHT22;10528;52.124;5.196;2023-07-30T04:15:53;17.30;99.90
20735;DHT22;10528;52.124;5.196;2023-07-30T04:18:20;17.30;99.90
20735;DHT22;10528;52.124;5.196;2023-07-30T04:20:49;17.40;99.90
20735;DHT22;10528;52.124;5.196;2023-07-30T04:23:16;17.50;99.90
20735;DHT22;10528;52.124;5.196;2023-07-30T04:25:43;17.40;99.90
20735;DHT22;10528;52.124;5.196;2023-07-30T04:28:10;17.50;99.90
20735;DHT22;10528;52.124;5.196;2023-07-30T04:30:37;17.60;99.90
20735;DHT22;10528;52.124;5.196;2023-07-30T04:33:04;17.50;99.90
20735;DHT22;10528;52.124;5.196;2023-07-30T04:35:31;17.40;99.90
20735;DHT22;10528;52.124;5.196;2023-07-30T04:37:59;17.50;99.90
20735;DHT22;10528;52.124;5.196;2023-07-30T04:40:26;17.40;99.90
20735;DHT22;10528;52.124;5.196;2023-07-30T04:42:53;17.60;99.90
20735;DHT22;10528;52.124;5.196;2023-07-30T04:45:20;17.80;99.90
20735;DHT22;10528;52.124;5.196;2023-07-30T04:47:49;17.80;99.90
20735;DHT22;10528;52.124;5.196;2023-07-30T04:50:16;17.70;99.90
20735;DHT22;10528;52.124;5.196;2023-07-30T04:52:43;17.60;99.90
20735;DHT22;10528;52.124;5.196;2023-07-30T04:55:09;17.90;99.90
20735;DHT22;10528;52.124;5.196;2023-07-30T04:57:36;17.90;99.90
20735;DHT22;10528;52.124;5.196;2023-07-30T05:00:04;17.80;99.90
20735;DHT22;10528;52.124;5.196;2023-07-30T05:02:31;17.90;99.90
20735;DHT22;10528;52.124;5.196;2023-07-30T05:04:58;17.80;99.90
20735;DHT22;10528;52.124;5.196;2023-07-30T05:07:25;17.70;99.90
20735;DHT22;10528;52.124;5.196;2023-07-30T05:09:52;17.70;99.90
20735;DHT22;10528;52.124;5.196;2023-07-30T05:12:19;18.00;99.90
20735;DHT22;10528;52.124;5.196;2023-07-30T05:14:46;18.10;99.90
20735;DHT22;10528;52.124;5.196;2023-07-30T05:17:13;18.00;99.90
20735;DHT22;10528;52.124;5.196;2023-07-30T05:19:40;18.20;99.90
20735;DHT22;10528;52.124;5.196;2023-07-30T05:22:06;18.20;99.90
20735;DHT22;10528;52.124;5.196;2023-07-30T05:24:34;18.00;99.90
20735;DHT22;10528;52.124;5.196;2023-07-30T05:27:03;18.10;99.90
20735;DHT22;10528;52.124;5.196;2023-07-30T05:29:31;18.10;99.90
20735;DHT22;10528;52.124;5.196;2023-07-30T05:31:58;18.10;99.90
20735;DHT22;10528;52.124;5.196;2023-07-30T05:34:25;18.00;99.90
20735;DHT22;10528;52.124;5.196;2023-07-30T05:36:52;18.20;99.90
20735;DHT22;10528;52.124;5.196;2023-07-30T05:39:19;18.50;99.90
20735;DHT22;10528;52.124;5.196;2023-07-30T05:41:46;18.40;99.90
20735;DHT22;10528;52.124;5.196;2023-07-30T05:44:13;18.30;99.90
20735;DHT22;10528;52.124;5.196;2023-07-30T05:46:39;18.60;99.90
20735;DHT22;10528;52.124;5.196;2023-07-30T05:49:06;18.50;99.90
20735;DHT22;10528;52.124;5.196;2023-07-30T05:51:33;18.70;99.90
20735;DHT22;10528;52.124;5.196;2023-07-30T05:54:00;18.50;99.90
20735;DHT22;10528;52.124;5.196;2023-07-30T05:56:27;18.60;99.90
20735;DHT22;10528;52.124;5.196;2023-07-30T05:58:54;18.60;99.90
20735;DHT22;10528;52.124;5.196;2023-07-30T06:01:21;18.70;99.90
20735;DHT22;10528;52.124;5.196;2023-07-30T06:03:48;18.80;99.90
20735;DHT22;10528;52.124;5.196;2023-07-30T06:06:16;18.80;99.90
20735;DHT22;10528;52.124;5.196;2023-07-30T06:08:43;18.80;99.90
20735;DHT22;10528;52.124;5.196;2023-07-30T06:11:10;19.00;99.90
20735;DHT22;10528;52.124;5.196;2023-07-30T06:13:37;18.80;99.90
20735;DHT22;10528;52.124;5.196;2023-07-30T06:16:04;18.90;99.90
20735;DHT22;10528;52.124;5.196;2023-07-30T06:18:31;19.00;99.90
20735;DHT22;10528;52.124;5.196;2023-07-30T06:20:58;19.20;99.90
20735;DHT22;10528;52.124;5.196;2023-07-30T06:23:25;18.90;99.90
20735;DHT22;10528;52.124;5.196;2023-07-30T06:25:52;18.80;99.90
20735;DHT22;10528;52.124;5.196;2023-07-30T06:28:19;18.90;99.90
20735;DHT22;10528;52.124;5.196;2023-07-30T06:30:46;19.10;99.90
20735;DHT22;10528;52.124;5.196;2023-07-30T06:33:13;19.40;99.90
20735;DHT22;10528;52.124;5.196;2023-07-30T06:35:40;19.20;99.90
20735;DHT22;10528;52.124;5.196;2023-07-30T06:38:08;19.10;99.90
20735;DHT22;10528;52.124;5.196;2023-07-30T06:40:35;19.30;99.90
20735;DHT22;10528;52.124;5.196;2023-07-30T06:43:02;19.30;99.90
20735;DHT22;10528;52.124;5.196;2023-07-30T06:45:29;19.20;99.90
20735;DHT22;10528;52.124;5.196;2023-07-30T06:47:56;19.50;99.90
20735;DHT22;10528;52.124;5.196;2023-07-30T06:50:23;19.60;99.90
20735;DHT22;10528;52.124;5.196;2023-07-30T06:52:50;19.30;99.90
20735;DHT22;10528;52.124;5.196;2023-07-30T06:55:17;19.40;99.90
20735;DHT22;10528;52.124;5.196;2023-07-30T06:57:44;19.60;99.90
20735;DHT22;10528;52.124;5.196;2023-07-30T07:00:12;19.70;99.90
20735;DHT22;10528;52.124;5.196;2023-07-30T07:02:40;19.90;99.90
20735;DHT22;10528;52.124;5.196;2023-07-30T07:05:07;19.80;99.90
20735;DHT22;10528;52.124;5.196;2023-07-30T07:07:34;19.90;99.90
20735;DHT22;10528;52.124;5.196;2023-07-30T07:10:01;19.60;99.90
20735;DHT22;10528;52.124;5.196;2023-07-30T07:12:28;19.90;99.90
20735;DHT22;10528;52.124;5.196;2023-07-30T07:14:55;19.80;99.90
20735;DHT22;10528;52.124;5.196;2023-07-30T07:17:24;19.50;99.90
20735;DHT22;10528;52.124;5.196;2023-07-30T07:19:51;19.70;99.90
20735;DHT22;10528;52.124;5.196;2023-07-30T07:22:18;19.80;99.90
20735;DHT22;10528;52.124;5.196;2023-07-30T07:24:46;19.70;99.90
20735;DHT22;10528;52.124;5.196;2023-07-30T07:27:12;20.10;99.90
20735;DHT22;10528;52.124;5.196;2023-07-30T07:29:39;19.90;99.90
20735;DHT22;10528;52.124;5.196;2023-07-30T07:32:06;20.10;99.90
20735;DHT22;10528;52.124;5.196;2023-07-30T07:34:33;20.20;99.90
20735;DHT22;10528;52.124;5.196;2023-07-30T07:37:01;20.00;99.90
20735;DHT22;10528;52.124;5.196;2023-07-30T07:39:29;20.20;99.90
20735;DHT22;10528;52.124;5.196;2023-07-30T07:41:56;20.60;99.90
20735;DHT22;10528;52.124;5.196;2023-07-30T07:44:23;20.30;99.90
20735;DHT22;10528;52.124;5.196;2023-07-30T07:46:50;20.20;99.90
20735;DHT22;10528;52.124;5.196;2023-07-30T07:49:17;20.20;99.90
20735;DHT22;10528;52.124;5.196;2023-07-30T07:51:44;20.30;99.90
20735;DHT22;10528;52.124;5.196;2023-07-30T07:54:10;20.70;99.90
20735;DHT22;10528;52.124;5.196;2023-07-30T07:56:37;21.20;99.90
20735;DHT22;10528;52.124;5.196;2023-07-30T07:59:04;21.00;99.90
20735;DHT22;10528;52.124;5.196;2023-07-30T08:01:31;20.60;99.90
20735;DHT22;10528;52.124;5.196;2023-07-30T08:03:58;21.00;99.90
20735;DHT22;10528;52.124;5.196;2023-07-30T08:06:25;21.20;99.90
20735;DHT22;10528;52.124;5.196;2023-07-30T08:08:52;20.80;99.90
20735;DHT22;10528;52.124;5.196;2023-07-30T08:11:19;20.70;99.90
20735;DHT22;10528;52.124;5.196;2023-07-30T08:13:46;20.60;99.90
20735;DHT22;10528;52.124;5.196;2023-07-30T08:16:13;20.60;99.90
20735;DHT22;10528;52.124;5.196;2023-07-30T08:18:40;21.00;99.90
20735;DHT22;10528;52.124;5.196;2023-07-30T08:21:07;21.00;99.90
20735;DHT22;10528;52.124;5.196;2023-07-30T08:23:34;20.80;99.90
20735;DHT22;10528;52.124;5.196;2023-07-30T08:26:01;20.70;99.90
20735;DHT22;10528;52.124;5.196;2023-07-30T08:28:28;20.70;99.90
20735;DHT22;10528;52.124;5.196;2023-07-30T08:31:01;20.90;99.90
20735;DHT22;10528;52.124;5.196;2023-07-30T08:33:29;20.90;99.90
20735;DHT22;10528;52.124;5.196;2023-07-30T08:35:56;20.70;99.90
20735;DHT22;10528;52.124;5.196;2023-07-30T08:38:23;20.90;99.90
20735;DHT22;10528;52.124;5.196;2023-07-30T08:40:51;20.60;99.90
20735;DHT22;10528;52.124;5.196;2023-07-30T08:43:18;21.00;99.90
20735;DHT22;10528;52.124;5.196;2023-07-30T08:45:46;21.20;99.90
20735;DHT22;10528;52.124;5.196;2023-07-30T08:48:13;21.40;99.90
20735;DHT22;10528;52.124;5.196;2023-07-30T08:50:40;21.50;99.90
20735;DHT22;10528;52.124;5.196;2023-07-30T08:53:08;21.70;99.90
20735;DHT22;10528;52.124;5.196;2023-07-30T08:55:36;21.70;99.90
20735;DHT22;10528;52.124;5.196;2023-07-30T08:58:05;21.50;99.90
20735;DHT22;10528;52.124;5.196;2023-07-30T09:00:36;21.60;99.90
20735;DHT22;10528;52.124;5.196;2023-07-30T09:03:05;21.30;99.90
20735;DHT22;10528;52.124;5.196;2023-07-30T09:05:33;21.30;99.90
20735;DHT22;10528;52.124;5.196;2023-07-30T09:08:00;21.00;99.90
20735;DHT22;10528;52.124;5.196;2023-07-30T09:10:27;21.00;99.90
20735;DHT22;10528;52.124;5.196;2023-07-30T09:12:56;21.20;99.90
20735;DHT22;10528;52.124;5.196;2023-07-30T09:15:35;21.20;99.90
20735;DHT22;10528;52.124;5.196;2023-07-30T09:18:06;21.30;99.90
20735;DHT22;10528;52.124;5.196;2023-07-30T09:20:39;21.00;99.90
20735;DHT22;10528;52.124;5.196;2023-07-30T09:23:08;20.90;99.90
20735;DHT22;10528;52.124;5.196;2023-07-30T09:25:36;20.60;99.90
20735;DHT22;10528;52.124;5.196;2023-07-30T09:28:05;20.60;99.90
20735;DHT22;10528;52.124;5.196;2023-07-30T09:30:33;20.80;99.90
20735;DHT22;10528;52.124;5.196;2023-07-30T09:33:00;20.80;99.90
20735;DHT22;10528;52.124;5.196;2023-07-30T09:35:27;21.20;99.90
20735;DHT22;10528;52.124;5.196;2023-07-30T09:37:59;21.30;99.90
20735;DHT22;10528;52.124;5.196;2023-07-30T09:40:33;21.20;99.90
20735;DHT22;10528;52.124;5.196;2023-07-30T09:43:03;21.20;99.90
20735;DHT22;10528;52.124;5.196;2023-07-30T09:45:34;21.40;99.90
20735;DHT22;10528;52.124;5.196;2023-07-30T09:48:03;21.60;99.90
20735;DHT22;10528;52.124;5.196;2023-07-30T09:50:33;21.90;99.90
20735;DHT22;10528;52.124;5.196;2023-07-30T09:53:01;21.90;99.90
20735;DHT22;10528;52.124;5.196;2023-07-30T09:55:28;22.30;99.90
20735;DHT22;10528;52.124;5.196;2023-07-30T09:57:55;22.40;99.90
20735;DHT22;10528;52.124;5.196;2023-07-30T10:00:22;22.60;99.90
20735;DHT22;10528;52.124;5.196;2023-07-30T10:02:52;22.00;99.90
20735;DHT22;10528;52.124;5.196;2023-07-30T10:05:25;22.40;99.90
20735;DHT22;10528;52.124;5.196;2023-07-30T10:08:18;22.50;99.90
20735;DHT22;10528;52.124;5.196;2023-07-30T10:10:49;22.50;99.90
20735;DHT22;10528;52.124;5.196;2023-07-30T10:13:18;22.70;99.90
20735;DHT22;10528;52.124;5.196;2023-07-30T10:15:47;22.50;99.90
20735;DHT22;10528;52.124;5.196;2023-07-30T10:18:14;22.30;99.90
20735;DHT22;10528;52.124;5.196;2023-07-30T10:20:52;22.30;99.90
20735;DHT22;10528;52.124;5.196;2023-07-30T10:23:20;22.10;99.90
20735;DHT22;10528;52.124;5.196;2023-07-30T10:25:49;22.50;99.90
20735;DHT22;10528;52.124;5.196;2023-07-30T10:30:58;22.30;99.90
20735;DHT22;10528;52.124;5.196;2023-07-30T10:36:31;22.10;99.90
20735;DHT22;10528;52.124;5.196;2023-07-30T10:39:13;22.20;99.90
20735;DHT22;10528;52.124;5.196;2023-07-30T10:41:49;22.60;99.90
20735;DHT22;10528;52.124;5.196;2023-07-30T10:47:02;22.60;99.90
20735;DHT22;10528;52.124;5.196;2023-07-30T10:49:36;22.80;99.90
20735;DHT22;10528;52.124;5.196;2023-07-30T10:52:13;23.00;99.90
20735;DHT22;10528;52.124;5.196;2023-07-30T10:54:42;23.10;99.90
20735;DHT22;10528;52.124;5.196;2023-07-30T10:57:09;23.30;99.90
20735;DHT22;10528;52.124;5.196;2023-07-30T10:59:37;23.00;99.90
20735;DHT22;10528;52.124;5.196;2023-07-30T11:02:04;22.90;99.90
20735;DHT22;10528;52.124;5.196;2023-07-30T11:04:34;22.70;99.90
20735;DHT22;10528;52.124;5.196;2023-07-30T11:07:02;22.50;99.90
20735;DHT22;10528;52.124;5.196;2023-07-30T11:09:30;22.50;99.90
20735;DHT22;10528;52.124;5.196;2023-07-30T11:11:57;22.50;99.90
20735;DHT22;10528;52.124;5.196;2023-07-30T11:14:25;22.70;99.90
20735;DHT22;10528;52.124;5.196;2023-07-30T11:16:55;22.60;99.90
20735;DHT22;10528;52.124;5.196;2023-07-30T11:19:27;22.30;99.90
20735;DHT22;10528;52.124;5.196;2023-07-30T11:21:57;22.50;99.90
20735;DHT22;10528;52.124;5.196;2023-07-30T11:24:34;22.40;99.90
20735;DHT22;10528;52.124;5.196;2023-07-30T11:27:03;22.20;99.90
20735;DHT22;10528;52.124;5.196;2023-07-30T11:29:30;22.20;99.90
20735;DHT22;10528;52.124;5.196;2023-07-30T11:31:58;22.50;99.90
20735;DHT22;10528;52.124;5.196;2023-07-30T11:34:27;22.70;99.90
20735;DHT22;10528;52.124;5.196;2023-07-30T11:36:56;22.90;99.90
20735;DHT22;10528;52.124;5.196;2023-07-30T11:39:24;22.70;99.90
20735;DHT22;10528;52.124;5.196;2023-07-30T11:41:52;22.70;99.90
20735;DHT22;10528;52.124;5.196;2023-07-30T11:44:30;22.90;99.90
20735;DHT22;10528;52.124;5.196;2023-07-30T11:47:01;23.10;99.90
20735;DHT22;10528;52.124;5.196;2023-07-30T11:49:30;23.10;99.90
20735;DHT22;10528;52.124;5.196;2023-07-30T11:52:07;23.10;99.90
20735;DHT22;10528;52.124;5.196;2023-07-30T11:54:35;23.20;99.90
20735;DHT22;10528;52.124;5.196;2023-07-30T11:57:03;23.40;99.90
20735;DHT22;10528;52.124;5.196;2023-07-30T11:59:33;23.30;99.90
20735;DHT22;10528;52.124;5.196;2023-07-30T12:02:00;23.60;99.90
20735;DHT22;10528;52.124;5.196;2023-07-30T12:04:44;23.60;99.90
20735;DHT22;10528;52.124;5.196;2023-07-30T12:07:23;23.40;99.90
20735;DHT22;10528;52.124;5.196;2023-07-30T12:09:53;23.10;99.90
20735;DHT22;10528;52.124;5.196;2023-07-30T12:12:25;22.80;99.90
20735;DHT22;10528;52.124;5.196;2023-07-30T12:14:54;23.20;99.90
20735;DHT22;10528;52.124;5.196;2023-07-30T12:17:21;23.40;99.90
20735;DHT22;10528;52.124;5.196;2023-07-30T12:19:48;23.40;99.90
20735;DHT22;10528;52.124;5.196;2023-07-30T12:22:15;23.50;99.90
20735;DHT22;10528;52.124;5.196;2023-07-30T12:24:42;23.50;99.90
20735;DHT22;10528;52.124;5.196;2023-07-30T12:27:09;23.60;99.90
20735;DHT22;10528;52.124;5.196;2023-07-30T12:29:36;23.60;99.90
20735;DHT22;10528;52.124;5.196;2023-07-30T12:32:03;23.60;99.90
20735;DHT22;10528;52.124;5.196;2023-07-30T12:34:30;23.40;99.90
20735;DHT22;10528;52.124;5.196;2023-07-30T12:36:57;23.50;99.90
20735;DHT22;10528;52.124;5.196;2023-07-30T12:39:25;23.40;99.90
20735;DHT22;10528;52.124;5.196;2023-07-30T12:41:52;23.40;99.90
20735;DHT22;10528;52.124;5.196;2023-07-30T12:44:19;23.60;99.90
20735;DHT22;10528;52.124;5.196;2023-07-30T12:46:46;23.60;99.90
20735;DHT22;10528;52.124;5.196;2023-07-30T12:49:13;23.70;99.90
20735;DHT22;10528;52.124;5.196;2023-07-30T12:51:40;23.70;99.90
20735;DHT22;10528;52.124;5.196;2023-07-30T12:54:08;23.70;99.90
20735;DHT22;10528;52.124;5.196;2023-07-30T12:56:36;23.60;99.90
20735;DHT22;10528;52.124;5.196;2023-07-30T12:59:03;23.60;99.90
20735;DHT22;10528;52.124;5.196;2023-07-30T13:01:30;23.50;99.90
20735;DHT22;10528;52.124;5.196;2023-07-30T13:03:57;23.10;99.90
20735;DHT22;10528;52.124;5.196;2023-07-30T13:06:24;23.10;99.90
20735;DHT22;10528;52.124;5.196;2023-07-30T13:08:52;23.20;99.90
20735;DHT22;10528;52.124;5.196;2023-07-30T13:11:20;23.50;99.90
20735;DHT22;10528;52.124;5.196;2023-07-30T13:13:47;23.70;99.90
20735;DHT22;10528;52.124;5.196;2023-07-30T13:16:14;23.40;99.90
20735;DHT22;10528;52.124;5.196;2023-07-30T13:18:42;23.40;99.90
20735;DHT22;10528;52.124;5.196;2023-07-30T13:21:09;23.10;99.90
20735;DHT22;10528;52.124;5.196;2023-07-30T13:23:36;22.90;99.90
20735;DHT22;10528;52.124;5.196;2023-07-30T13:26:03;23.00;99.90
20735;DHT22;10528;52.124;5.196;2023-07-30T13:28:30;23.20;99.90
20735;DHT22;10528;52.124;5.196;2023-07-30T13:30:57;23.00;99.90
20735;DHT22;10528;52.124;5.196;2023-07-30T13:33:24;23.10;99.90
20735;DHT22;10528;52.124;5.196;2023-07-30T13:35:51;23.20;99.90
20735;DHT22;10528;52.124;5.196;2023-07-30T13:38:18;22.80;99.90
20735;DHT22;10528;52.124;5.196;2023-07-30T13:40:48;22.90;99.90
20735;DHT22;10528;52.124;5.196;2023-07-30T13:43:15;23.00;99.90
20735;DHT22;10528;52.124;5.196;2023-07-30T13:45:42;23.20;99.90
20735;DHT22;10528;52.124;5.196;2023-07-30T13:48:09;23.20;99.90
20735;DHT22;10528;52.124;5.196;2023-07-30T13:50:36;23.10;99.90
20735;DHT22;10528;52.124;5.196;2023-07-30T13:53:03;23.10;99.90
20735;DHT22;10528;52.124;5.196;2023-07-30T13:55:30;22.90;99.90
20735;DHT22;10528;52.124;5.196;2023-07-30T13:57:57;22.70;99.90
20735;DHT22;10528;52.124;5.196;2023-07-30T14:00:24;22.80;99.90
20735;DHT22;10528;52.124;5.196;2023-07-30T14:02:51;23.10;99.90
20735;DHT22;10528;52.124;5.196;2023-07-30T14:05:18;22.90;99.90
20735;DHT22;10528;52.124;5.196;2023-07-30T14:07:45;22.90;99.90
20735;DHT22;10528;52.124;5.196;2023-07-30T14:10:12;23.00;99.90
20735;DHT22;10528;52.124;5.196;2023-07-30T14:12:39;23.00;99.90
20735;DHT22;10528;52.124;5.196;2023-07-30T14:15:06;23.10;99.90
20735;DHT22;10528;52.124;5.196;2023-07-30T14:17:33;23.10;99.90
20735;DHT22;10528;52.124;5.196;2023-07-30T14:20:03;23.20;99.90
20735;DHT22;10528;52.124;5.196;2023-07-30T14:22:31;23.10;99.90
20735;DHT22;10528;52.124;5.196;2023-07-30T14:24:57;23.20;99.90
20735;DHT22;10528;52.124;5.196;2023-07-30T14:27:25;23.30;99.90
20735;DHT22;10528;52.124;5.196;2023-07-30T14:29:52;23.30;99.90
20735;DHT22;10528;52.124;5.196;2023-07-30T14:32:19;23.20;99.90
20735;DHT22;10528;52.124;5.196;2023-07-30T14:34:47;23.10;99.90
20735;DHT22;10528;52.124;5.196;2023-07-30T14:37:14;23.00;99.90
20735;DHT22;10528;52.124;5.196;2023-07-30T14:39:41;23.00;99.90
20735;DHT22;10528;52.124;5.196;2023-07-30T14:42:08;23.00;99.90
20735;DHT22;10528;52.124;5.196;2023-07-30T14:44:35;23.00;99.90
20735;DHT22;10528;52.124;5.196;2023-07-30T14:47:02;23.10;99.90
20735;DHT22;10528;52.124;5.196;2023-07-30T14:49:31;23.20;99.90
20735;DHT22;10528;52.124;5.196;2023-07-30T14:51:58;23.20;99.90
20735;DHT22;10528;52.124;5.196;2023-07-30T14:54:25;23.10;99.90
20735;DHT22;10528;52.124;5.196;2023-07-30T14:56:52;23.10;99.90
20735;DHT22;10528;52.124;5.196;2023-07-30T14:59:20;22.80;99.90
20735;DHT22;10528;52.124;5.196;2023-07-30T15:01:47;22.60;99.90
20735;DHT22;10528;52.124;5.196;2023-07-30T15:04:14;22.90;99.90
20735;DHT22;10528;52.124;5.196;2023-07-30T15:06:41;22.90;99.90
20735;DHT22;10528;52.124;5.196;2023-07-30T15:09:08;22.90;99.90
20735;DHT22;10528;52.124;5.196;2023-07-30T15:11:35;22.70;99.90
20735;DHT22;10528;52.124;5.196;2023-07-30T15:14:02;22.60;99.90
20735;DHT22;10528;52.124;5.196;2023-07-30T15:16:29;22.70;99.90
20735;DHT22;10528;52.124;5.196;2023-07-30T15:18:56;22.90;99.90
20735;DHT22;10528;52.124;5.196;2023-07-30T15:21:25;22.70;99.90
20735;DHT22;10528;52.124;5.196;2023-07-30T15:23:52;22.60;99.90
20735;DHT22;10528;52.124;5.196;2023-07-30T15:26:19;22.70;99.90
20735;DHT22;10528;52.124;5.196;2023-07-30T15:28:47;22.70;99.90
20735;DHT22;10528;52.124;5.196;2023-07-30T15:31:14;22.60;99.90
20735;DHT22;10528;52.124;5.196;2023-07-30T15:33:41;22.80;99.90
20735;DHT22;10528;52.124;5.196;2023-07-30T15:36:08;22.70;99.90
20735;DHT22;10528;52.124;5.196;2023-07-30T15:38:35;22.80;99.90
20735;DHT22;10528;52.124;5.196;2023-07-30T15:41:03;22.70;99.90
20735;DHT22;10528;52.124;5.196;2023-07-30T15:43:30;22.80;99.90